createdAt,value
2019-03-31T00:01:08.140Z,0.00
2019-03-31T00:01:58.564Z,0.00
2019-03-31T00:02:58.574Z,0.00
2019-03-31T00:03:58.588Z,0.00
2019-03-31T00:04:58.592Z,0.00
2019-03-31T00:05:58.606Z,0.00
2019-03-31T00:06:58.615Z,0.00
2019-03-31T00:07:58.621Z,0.00
2019-03-31T00:08:58.631Z,0.00
2019-03-31T00:09:58.648Z,0.00
2019-03-31T00:11:00.598Z,0.00
2019-03-31T00:11:58.670Z,0.00
2019-03-31T00:12:58.670Z,0.00
2019-03-31T00:13:58.678Z,0.00
2019-03-31T00:14:58.690Z,0.00
2019-03-31T00:15:58.701Z,0.00
2019-03-31T00:16:58.715Z,0.00
2019-03-31T00:17:58.716Z,0.00
2019-03-31T00:18:58.727Z,0.00
2019-03-31T00:19:58.738Z,0.00
2019-03-31T00:20:58.747Z,0.00
2019-03-31T00:21:58.760Z,0.00
2019-03-31T00:22:58.769Z,0.00
2019-03-31T00:23:58.779Z,0.00
2019-03-31T00:24:58.788Z,0.00
2019-03-31T00:25:58.799Z,0.00
2019-03-31T00:26:58.809Z,0.00
2019-03-31T00:27:58.813Z,0.00
2019-03-31T00:28:58.830Z,0.00
2019-03-31T00:29:58.846Z,0.00
2019-03-31T00:30:58.847Z,0.00
2019-03-31T00:31:58.860Z,0.00
2019-03-31T00:32:58.869Z,0.00
2019-03-31T00:33:58.877Z,0.00
2019-03-31T00:34:58.890Z,0.00
2019-03-31T00:35:58.897Z,0.00
2019-03-31T00:36:58.905Z,0.00
2019-03-31T00:37:58.916Z,0.00
2019-03-31T00:38:58.923Z,0.00
2019-03-31T00:39:58.935Z,0.00
2019-03-31T00:40:58.942Z,0.00
2019-03-31T00:41:58.951Z,0.00
2019-03-31T00:42:58.966Z,0.00
2019-03-31T00:43:58.974Z,0.00
2019-03-31T00:44:58.983Z,0.00
2019-03-31T00:45:58.992Z,0.00
2019-03-31T00:47:02.035Z,0.00
2019-03-31T00:47:59.008Z,0.00
2019-03-31T00:48:59.022Z,0.00
2019-03-31T00:49:59.034Z,0.00
2019-03-31T00:50:59.042Z,0.00
2019-03-31T00:51:59.055Z,0.00
2019-03-31T00:52:59.061Z,0.00
2019-03-31T00:53:59.070Z,0.00
2019-03-31T00:54:59.077Z,0.00
2019-03-31T00:55:59.092Z,0.00
2019-03-31T00:56:59.099Z,0.00
2019-03-31T00:57:59.109Z,0.00
2019-03-31T00:58:59.117Z,0.00
2019-03-31T00:59:59.127Z,0.00
2019-03-31T01:00:59.140Z,0.00
2019-03-31T01:01:59.146Z,0.00
2019-03-31T01:02:59.156Z,0.00
2019-03-31T01:03:59.165Z,0.00
2019-03-31T01:04:59.176Z,0.00
2019-03-31T01:05:59.186Z,0.00
2019-03-31T01:06:59.196Z,0.00
2019-03-31T01:07:59.204Z,0.00
2019-03-31T01:08:59.212Z,0.00
2019-03-31T01:09:59.225Z,0.00
2019-03-31T01:10:59.235Z,0.00
2019-03-31T01:11:59.323Z,0.00
2019-03-31T01:12:59.251Z,0.00
2019-03-31T01:13:59.260Z,0.00
2019-03-31T01:14:59.272Z,0.00
2019-03-31T01:15:59.281Z,0.00
2019-03-31T01:16:59.291Z,0.00
2019-03-31T01:17:59.299Z,0.00
2019-03-31T01:18:59.310Z,0.00
2019-03-31T01:19:59.320Z,0.00
2019-03-31T01:20:59.330Z,0.00
2019-03-31T01:21:59.342Z,0.00
2019-03-31T01:22:59.343Z,0.00
2019-03-31T01:23:59.356Z,0.00
2019-03-31T01:24:59.364Z,0.00
2019-03-31T01:26:00.615Z,0.00
2019-03-31T01:26:59.384Z,0.00
2019-03-31T01:27:59.388Z,0.00
2019-03-31T01:28:59.402Z,0.00
2019-03-31T01:29:59.410Z,0.00
2019-03-31T01:30:59.420Z,0.00
2019-03-31T01:31:59.427Z,0.00
2019-03-31T01:32:59.440Z,0.00
2019-03-31T01:33:59.450Z,0.00
2019-03-31T01:34:59.455Z,0.00
2019-03-31T01:35:59.468Z,0.00
2019-03-31T01:36:59.480Z,0.00
2019-03-31T01:37:59.484Z,0.00
2019-03-31T01:38:59.494Z,0.00
2019-03-31T01:39:59.509Z,0.00
2019-03-31T01:40:59.510Z,0.00
2019-03-31T01:41:59.521Z,0.00
2019-03-31T01:42:59.530Z,0.00
2019-03-31T01:43:59.543Z,0.00
2019-03-31T01:44:59.553Z,0.00
2019-03-31T01:45:59.557Z,0.00
2019-03-31T01:46:59.575Z,0.00
2019-03-31T01:47:59.577Z,0.00
2019-03-31T01:48:59.589Z,0.00
2019-03-31T01:49:59.598Z,0.00
2019-03-31T01:50:59.608Z,0.00
2019-03-31T01:51:59.618Z,0.00
2019-03-31T01:52:59.626Z,0.00
2019-03-31T01:53:59.640Z,0.00
2019-03-31T01:54:59.645Z,0.00
2019-03-31T01:55:59.654Z,0.00
2019-03-31T01:56:59.666Z,0.00
2019-03-31T01:57:59.680Z,0.00
2019-03-31T01:58:59.683Z,0.00
2019-03-31T01:59:59.695Z,0.00
2019-03-31T02:00:59.700Z,0.00
2019-03-31T02:02:04.303Z,0.00
2019-03-31T02:02:59.718Z,0.00
2019-03-31T02:03:59.726Z,0.00
2019-03-31T02:04:59.736Z,0.00
2019-03-31T02:05:59.747Z,0.00
2019-03-31T02:06:59.754Z,0.00
2019-03-31T02:07:59.763Z,0.00
2019-03-31T02:08:59.776Z,0.00
2019-03-31T02:09:59.782Z,0.00
2019-03-31T02:10:59.807Z,0.00
2019-03-31T02:11:59.801Z,0.00
2019-03-31T02:12:59.813Z,0.00
2019-03-31T02:13:59.821Z,0.00
2019-03-31T02:14:59.829Z,0.00
2019-03-31T02:15:59.837Z,0.00
2019-03-31T02:16:59.848Z,0.00
2019-03-31T02:17:59.858Z,0.00
2019-03-31T02:18:59.868Z,0.00
2019-03-31T02:19:59.878Z,0.00
2019-03-31T02:20:59.884Z,0.00
2019-03-31T02:21:59.893Z,0.00
2019-03-31T02:22:59.908Z,0.00
2019-03-31T02:23:59.912Z,0.00
2019-03-31T02:24:59.925Z,0.00
2019-03-31T02:25:59.930Z,0.00
2019-03-31T02:26:59.944Z,0.00
2019-03-31T02:27:59.947Z,0.00
2019-03-31T02:28:59.962Z,0.00
2019-03-31T02:29:59.967Z,0.00
2019-03-31T02:30:59.978Z,0.00
2019-03-31T02:32:00.004Z,0.00
2019-03-31T02:33:00.002Z,0.00
2019-03-31T02:34:00.008Z,0.00
2019-03-31T02:35:00.019Z,0.00
2019-03-31T02:36:00.024Z,0.00
2019-03-31T02:37:00.031Z,0.00
2019-03-31T02:38:00.042Z,0.00
2019-03-31T02:39:00.068Z,0.00
2019-03-31T02:40:00.414Z,0.00
2019-03-31T02:41:00.073Z,0.00
2019-03-31T02:42:00.091Z,0.00
2019-03-31T02:43:00.092Z,0.00
2019-03-31T02:44:00.103Z,0.00
2019-03-31T02:45:00.634Z,0.00
2019-03-31T02:46:00.115Z,0.00
2019-03-31T02:47:00.126Z,0.00
2019-03-31T02:48:00.147Z,0.00
2019-03-31T02:49:00.146Z,0.00
2019-03-31T02:50:00.592Z,0.00
2019-03-31T02:51:00.168Z,0.00
2019-03-31T02:52:00.168Z,0.00
2019-03-31T02:53:00.179Z,0.00
2019-03-31T02:54:00.187Z,0.00
2019-03-31T02:55:00.523Z,0.00
2019-03-31T02:56:00.210Z,0.00
2019-03-31T02:57:00.217Z,0.00
2019-03-31T02:58:00.227Z,0.00
2019-03-31T02:59:00.240Z,0.00
2019-03-31T03:00:00.490Z,0.00
2019-03-31T03:01:00.253Z,0.00
2019-03-31T03:02:00.265Z,0.00
2019-03-31T03:03:00.268Z,0.00
2019-03-31T03:04:00.277Z,0.00
2019-03-31T03:05:17.725Z,0.00
2019-03-31T03:06:00.329Z,0.00
2019-03-31T03:07:00.305Z,0.00
2019-03-31T03:08:00.316Z,0.00
2019-03-31T03:09:00.327Z,0.00
2019-03-31T03:10:00.599Z,0.00
2019-03-31T03:11:00.344Z,0.00
2019-03-31T03:12:00.354Z,0.00
2019-03-31T03:13:00.359Z,0.00
2019-03-31T03:14:00.368Z,0.00
2019-03-31T03:15:00.604Z,0.00
2019-03-31T03:16:00.385Z,0.00
2019-03-31T03:17:00.398Z,0.00
2019-03-31T03:18:00.419Z,0.00
2019-03-31T03:19:00.418Z,0.00
2019-03-31T03:20:00.451Z,0.00
2019-03-31T03:21:00.432Z,0.00
2019-03-31T03:22:00.442Z,0.00
2019-03-31T03:23:00.449Z,0.00
2019-03-31T03:24:00.464Z,0.00
2019-03-31T03:25:00.539Z,0.00
2019-03-31T03:26:00.477Z,0.00
2019-03-31T03:27:00.490Z,0.00
2019-03-31T03:28:00.495Z,0.00
2019-03-31T03:29:00.501Z,0.00
2019-03-31T03:30:00.738Z,0.00
2019-03-31T03:31:01.044Z,0.00
2019-03-31T03:32:00.544Z,0.00
2019-03-31T03:33:14.496Z,0.00
2019-03-31T03:34:00.551Z,0.00
2019-03-31T03:35:01.114Z,0.00
2019-03-31T03:36:00.563Z,0.00
2019-03-31T03:37:00.581Z,0.00
2019-03-31T03:38:00.598Z,0.00
2019-03-31T03:39:00.615Z,0.00
2019-03-31T03:40:00.601Z,0.00
2019-03-31T03:41:00.615Z,0.00
2019-03-31T03:42:00.631Z,0.00
2019-03-31T03:43:00.630Z,0.00
2019-03-31T03:44:02.524Z,0.00
2019-03-31T03:45:00.647Z,0.00
2019-03-31T03:46:00.662Z,0.00
2019-03-31T03:47:00.668Z,0.00
2019-03-31T03:48:00.676Z,0.00
2019-03-31T03:49:00.811Z,0.00
2019-03-31T03:50:00.721Z,0.00
2019-03-31T03:51:00.705Z,0.00
2019-03-31T03:52:00.708Z,0.00
2019-03-31T03:53:00.715Z,0.00
2019-03-31T03:54:00.725Z,0.00
2019-03-31T03:55:00.732Z,0.00
2019-03-31T03:56:00.778Z,0.00
2019-03-31T03:57:00.755Z,0.00
2019-03-31T03:58:00.762Z,0.00
2019-03-31T03:59:00.775Z,0.00
2019-03-31T04:00:00.783Z,0.00
2019-03-31T04:01:00.792Z,0.00
2019-03-31T04:02:00.886Z,0.00
2019-03-31T04:03:00.810Z,0.00
2019-03-31T04:04:00.814Z,0.00
2019-03-31T04:05:00.821Z,0.00
2019-03-31T04:06:00.875Z,0.00
2019-03-31T04:07:00.842Z,0.00
2019-03-31T04:08:00.848Z,0.00
2019-03-31T04:09:00.857Z,0.00
2019-03-31T04:10:00.869Z,0.00
2019-03-31T04:11:00.877Z,0.00
2019-03-31T04:12:00.883Z,0.00
2019-03-31T04:13:00.895Z,0.00
2019-03-31T04:14:00.906Z,0.00
2019-03-31T04:15:00.909Z,0.00
2019-03-31T04:16:00.923Z,0.00
2019-03-31T04:17:00.929Z,0.00
2019-03-31T04:18:00.977Z,0.00
2019-03-31T04:19:01.034Z,0.00
2019-03-31T04:20:00.952Z,0.00
2019-03-31T04:21:00.992Z,0.00
2019-03-31T04:22:00.978Z,0.00
2019-03-31T04:23:00.987Z,0.00
2019-03-31T04:24:00.989Z,0.00
2019-03-31T04:25:01.006Z,0.00
2019-03-31T04:26:01.009Z,0.00
2019-03-31T04:27:01.019Z,0.00
2019-03-31T04:28:01.036Z,0.00
2019-03-31T04:29:01.033Z,0.00
2019-03-31T04:30:01.040Z,0.00
2019-03-31T04:31:01.054Z,0.00
2019-03-31T04:32:01.058Z,0.00
2019-03-31T04:33:01.064Z,0.00
2019-03-31T04:34:01.080Z,0.00
2019-03-31T04:35:01.094Z,0.00
2019-03-31T04:36:01.112Z,0.00
2019-03-31T04:37:01.101Z,0.00
2019-03-31T04:38:01.119Z,0.00
2019-03-31T04:39:01.130Z,0.00
2019-03-31T04:40:01.132Z,0.00
2019-03-31T04:41:01.136Z,0.00
2019-03-31T04:42:01.147Z,0.00
2019-03-31T04:43:01.156Z,0.00
2019-03-31T04:44:01.164Z,0.00
2019-03-31T04:45:01.176Z,0.00
2019-03-31T04:46:01.195Z,0.00
2019-03-31T04:47:01.190Z,0.00
2019-03-31T04:48:01.207Z,0.00
2019-03-31T04:49:01.243Z,0.00
2019-03-31T04:50:01.218Z,0.00
2019-03-31T04:51:01.231Z,0.00
2019-03-31T04:52:01.232Z,0.00
2019-03-31T04:53:01.239Z,0.00
2019-03-31T04:54:01.245Z,0.00
2019-03-31T04:55:01.257Z,0.00
2019-03-31T04:56:01.268Z,0.00
2019-03-31T04:57:04.416Z,0.00
2019-03-31T04:58:01.283Z,0.00
2019-03-31T04:59:01.291Z,0.00
2019-03-31T05:00:01.296Z,0.00
2019-03-31T05:01:01.303Z,0.00
2019-03-31T05:02:01.321Z,0.00
2019-03-31T05:03:01.327Z,4.00
2019-03-31T05:04:04.832Z,4.00
2019-03-31T05:05:01.372Z,0.00
2019-03-31T05:06:01.378Z,0.00
2019-03-31T05:07:01.362Z,4.00
2019-03-31T05:08:01.364Z,4.00
2019-03-31T05:09:01.373Z,4.00
2019-03-31T05:10:01.383Z,4.00
2019-03-31T05:11:01.392Z,4.00
2019-03-31T05:12:01.403Z,8.00
2019-03-31T05:13:01.410Z,8.00
2019-03-31T05:14:01.415Z,8.00
2019-03-31T05:15:01.425Z,8.00
2019-03-31T05:16:01.434Z,8.00
2019-03-31T05:17:01.443Z,12.00
2019-03-31T05:18:01.452Z,12.00
2019-03-31T05:19:01.462Z,8.00
2019-03-31T05:20:01.470Z,12.00
2019-03-31T05:21:01.477Z,12.00
2019-03-31T05:22:01.488Z,12.00
2019-03-31T05:23:01.494Z,16.00
2019-03-31T05:24:01.501Z,16.00
2019-03-31T05:25:01.512Z,16.00
2019-03-31T05:26:01.520Z,20.00
2019-03-31T05:27:01.524Z,20.00
2019-03-31T05:28:01.538Z,16.00
2019-03-31T05:29:01.547Z,20.00
2019-03-31T05:30:01.556Z,20.00
2019-03-31T05:31:01.636Z,24.00
2019-03-31T05:32:01.575Z,24.00
2019-03-31T05:33:01.578Z,24.00
2019-03-31T05:34:01.615Z,28.00
2019-03-31T05:35:01.598Z,24.00
2019-03-31T05:36:01.603Z,28.00
2019-03-31T05:37:01.610Z,28.00
2019-03-31T05:38:01.621Z,32.00
2019-03-31T05:39:01.625Z,28.00
2019-03-31T05:40:01.638Z,32.00
2019-03-31T05:41:01.644Z,32.00
2019-03-31T05:42:01.653Z,32.00
2019-03-31T05:43:01.658Z,32.00
2019-03-31T05:44:05.800Z,36.00
2019-03-31T05:45:01.682Z,36.00
2019-03-31T05:46:01.688Z,40.00
2019-03-31T05:47:01.691Z,36.00
2019-03-31T05:48:01.702Z,40.00
2019-03-31T05:49:01.708Z,40.00
2019-03-31T05:50:01.715Z,40.00
2019-03-31T05:51:01.728Z,44.00
2019-03-31T05:52:01.730Z,44.00
2019-03-31T05:53:01.741Z,44.00
2019-03-31T05:54:01.752Z,44.00
2019-03-31T05:55:01.761Z,48.00
2019-03-31T05:56:01.766Z,48.00
2019-03-31T05:57:01.772Z,48.00
2019-03-31T05:58:01.780Z,48.00
2019-03-31T05:59:01.787Z,48.00
2019-03-31T06:00:01.796Z,52.00
2019-03-31T06:01:01.804Z,56.00
2019-03-31T06:02:01.812Z,56.00
2019-03-31T06:03:01.825Z,56.00
2019-03-31T06:04:01.832Z,56.00
2019-03-31T06:05:01.836Z,60.00
2019-03-31T06:06:01.848Z,56.00
2019-03-31T06:07:01.853Z,60.00
2019-03-31T06:08:01.870Z,60.00
2019-03-31T06:09:01.875Z,64.00
2019-03-31T06:10:01.879Z,64.00
2019-03-31T06:11:01.889Z,64.00
2019-03-31T06:12:01.898Z,68.00
2019-03-31T06:13:01.904Z,68.00
2019-03-31T06:14:01.915Z,72.00
2019-03-31T06:15:01.923Z,72.00
2019-03-31T06:16:01.931Z,72.00
2019-03-31T06:17:01.935Z,76.00
2019-03-31T06:18:01.945Z,72.00
2019-03-31T06:19:01.951Z,76.00
2019-03-31T06:20:01.959Z,76.00
2019-03-31T06:21:01.970Z,76.00
2019-03-31T06:22:01.981Z,80.00
2019-03-31T06:23:01.989Z,80.00
2019-03-31T06:24:02.000Z,80.00
2019-03-31T06:25:02.013Z,80.00
2019-03-31T06:26:02.019Z,84.00
2019-03-31T06:27:02.018Z,84.00
2019-03-31T06:28:02.026Z,84.00
2019-03-31T06:29:02.039Z,84.00
2019-03-31T06:30:02.048Z,84.00
2019-03-31T06:31:02.052Z,80.00
2019-03-31T06:32:02.067Z,80.00
2019-03-31T06:33:02.071Z,84.00
2019-03-31T06:34:02.077Z,84.00
2019-03-31T06:35:02.110Z,80.00
2019-03-31T06:36:02.101Z,80.00
2019-03-31T06:37:02.102Z,84.00
2019-03-31T06:38:02.110Z,84.00
2019-03-31T06:39:02.118Z,84.00
2019-03-31T06:40:02.131Z,92.00
2019-03-31T06:41:02.134Z,88.00
2019-03-31T06:42:02.144Z,100.00
2019-03-31T06:43:02.157Z,108.00
2019-03-31T06:44:02.165Z,108.00
2019-03-31T06:45:02.182Z,108.00
2019-03-31T06:46:02.243Z,112.00
2019-03-31T06:47:02.188Z,124.00
2019-03-31T06:48:02.197Z,140.00
2019-03-31T06:49:02.201Z,140.00
2019-03-31T06:50:02.212Z,144.00
2019-03-31T06:51:02.220Z,144.00
2019-03-31T06:52:02.234Z,144.00
2019-03-31T06:53:02.258Z,136.00
2019-03-31T06:54:02.250Z,132.00
2019-03-31T06:55:02.253Z,132.00
2019-03-31T06:56:02.266Z,136.00
2019-03-31T06:57:02.276Z,136.00
2019-03-31T06:58:02.282Z,140.00
2019-03-31T06:59:02.295Z,144.00
2019-03-31T07:00:02.299Z,148.00
2019-03-31T07:01:02.309Z,152.00
2019-03-31T07:02:03.317Z,164.00
2019-03-31T07:03:02.328Z,172.00
2019-03-31T07:04:02.333Z,172.00
2019-03-31T07:05:02.361Z,176.00
2019-03-31T07:06:02.356Z,172.00
2019-03-31T07:07:02.358Z,172.00
2019-03-31T07:08:02.372Z,164.00
2019-03-31T07:09:02.381Z,168.00
2019-03-31T07:10:02.390Z,164.00
2019-03-31T07:11:02.396Z,160.00
2019-03-31T07:12:02.402Z,164.00
2019-03-31T07:13:02.412Z,164.00
2019-03-31T07:14:02.426Z,168.00
2019-03-31T07:15:02.429Z,172.00
2019-03-31T07:16:02.468Z,168.00
2019-03-31T07:17:02.453Z,168.00
2019-03-31T07:18:02.461Z,176.00
2019-03-31T07:19:02.465Z,184.00
2019-03-31T07:20:02.475Z,188.00
2019-03-31T07:21:02.484Z,188.00
2019-03-31T07:22:02.491Z,184.00
2019-03-31T07:23:02.501Z,192.00
2019-03-31T07:24:02.509Z,196.00
2019-03-31T07:25:02.526Z,196.00
2019-03-31T07:26:02.535Z,188.00
2019-03-31T07:27:02.535Z,192.00
2019-03-31T07:28:02.547Z,192.00
2019-03-31T07:29:02.554Z,192.00
2019-03-31T07:30:02.565Z,200.00
2019-03-31T07:31:02.570Z,204.00
2019-03-31T07:32:02.589Z,212.00
2019-03-31T07:33:02.591Z,212.00
2019-03-31T07:34:02.600Z,216.00
2019-03-31T07:35:02.617Z,220.00
2019-03-31T07:36:02.621Z,224.00
2019-03-31T07:37:02.628Z,228.00
2019-03-31T07:38:02.640Z,224.00
2019-03-31T07:39:02.844Z,224.00
2019-03-31T07:40:03.082Z,224.00
2019-03-31T07:41:12.597Z,224.00
2019-03-31T07:42:03.087Z,228.00
2019-03-31T07:43:02.744Z,224.00
2019-03-31T07:44:02.690Z,228.00
2019-03-31T07:45:02.700Z,212.00
2019-03-31T07:46:02.709Z,204.00
2019-03-31T07:47:02.720Z,220.00
2019-03-31T07:48:02.726Z,224.00
2019-03-31T07:49:02.735Z,232.00
2019-03-31T07:50:02.747Z,232.00
2019-03-31T07:51:02.763Z,240.00
2019-03-31T07:52:02.776Z,244.00
2019-03-31T07:53:02.772Z,244.00
2019-03-31T07:54:02.807Z,248.00
2019-03-31T07:55:02.788Z,248.00
2019-03-31T07:56:02.795Z,252.00
2019-03-31T07:57:02.812Z,252.00
2019-03-31T07:58:02.849Z,256.00
2019-03-31T07:59:02.932Z,256.00
2019-03-31T08:00:02.834Z,260.00
2019-03-31T08:01:02.842Z,264.00
2019-03-31T08:02:02.862Z,264.00
2019-03-31T08:03:02.861Z,264.00
2019-03-31T08:04:02.878Z,268.00
2019-03-31T08:05:02.883Z,272.00
2019-03-31T08:06:02.890Z,272.00
2019-03-31T08:07:02.901Z,276.00
2019-03-31T08:08:03.003Z,280.00
2019-03-31T08:09:02.918Z,284.00
2019-03-31T08:10:02.929Z,288.00
2019-03-31T08:11:02.938Z,288.00
2019-03-31T08:12:02.949Z,292.00
2019-03-31T08:13:02.959Z,296.00
2019-03-31T08:14:02.967Z,300.00
2019-03-31T08:15:02.977Z,300.00
2019-03-31T08:16:02.983Z,304.00
2019-03-31T08:17:02.992Z,308.00
2019-03-31T08:18:03.009Z,312.00
2019-03-31T08:19:03.010Z,312.00
2019-03-31T08:20:03.020Z,312.00
2019-03-31T08:21:03.031Z,320.00
2019-03-31T08:22:03.049Z,324.00
2019-03-31T08:23:03.056Z,328.00
2019-03-31T08:24:06.523Z,328.00
2019-03-31T08:25:03.072Z,336.00
2019-03-31T08:26:03.078Z,340.00
2019-03-31T08:27:05.583Z,340.00
2019-03-31T08:28:03.100Z,348.00
2019-03-31T08:29:03.108Z,348.00
2019-03-31T08:30:03.121Z,356.00
2019-03-31T08:31:03.134Z,356.00
2019-03-31T08:32:03.140Z,360.00
2019-03-31T08:33:03.150Z,364.00
2019-03-31T08:34:03.164Z,368.00
2019-03-31T08:35:03.168Z,372.00
2019-03-31T08:36:03.176Z,376.00
2019-03-31T08:37:03.191Z,380.00
2019-03-31T08:38:03.199Z,380.00
2019-03-31T08:39:03.210Z,388.00
2019-03-31T08:40:03.214Z,388.00
2019-03-31T08:41:03.227Z,396.00
2019-03-31T08:42:03.234Z,400.00
2019-03-31T08:43:03.244Z,408.00
2019-03-31T08:44:03.261Z,408.00
2019-03-31T08:45:03.264Z,416.00
2019-03-31T08:46:03.284Z,420.00
2019-03-31T08:47:03.289Z,424.00
2019-03-31T08:48:03.294Z,432.00
2019-03-31T08:49:03.304Z,436.00
2019-03-31T08:50:03.318Z,440.00
2019-03-31T08:51:03.327Z,444.00
2019-03-31T08:52:03.336Z,448.00
2019-03-31T08:53:03.351Z,452.00
2019-03-31T08:54:03.372Z,460.00
2019-03-31T08:55:03.373Z,460.00
2019-03-31T08:56:03.378Z,464.00
2019-03-31T08:57:03.391Z,472.00
2019-03-31T08:58:03.404Z,476.00
2019-03-31T08:59:03.413Z,480.00
2019-03-31T09:00:03.424Z,484.00
2019-03-31T09:01:03.431Z,488.00
2019-03-31T09:02:03.586Z,496.00
2019-03-31T09:03:03.451Z,500.00
2019-03-31T09:04:03.468Z,508.00
2019-03-31T09:05:03.474Z,512.00
2019-03-31T09:06:03.486Z,520.00
2019-03-31T09:07:03.503Z,524.00
2019-03-31T09:08:03.507Z,516.00
2019-03-31T09:09:03.514Z,528.00
2019-03-31T09:10:03.524Z,540.00
2019-03-31T09:11:03.555Z,548.00
2019-03-31T09:12:03.549Z,556.00
2019-03-31T09:13:03.560Z,560.00
2019-03-31T09:14:03.574Z,568.00
2019-03-31T09:15:03.579Z,576.00
2019-03-31T09:16:03.598Z,580.00
2019-03-31T09:17:03.602Z,592.00
2019-03-31T09:18:03.610Z,600.00
2019-03-31T09:19:03.620Z,608.00
2019-03-31T09:20:03.644Z,604.00
2019-03-31T09:21:03.643Z,616.00
2019-03-31T09:22:03.656Z,624.00
2019-03-31T09:23:03.736Z,632.00
2019-03-31T09:24:03.675Z,644.00
2019-03-31T09:25:03.688Z,656.00
2019-03-31T09:26:03.699Z,664.00
2019-03-31T09:27:03.713Z,676.00
2019-03-31T09:28:03.715Z,680.00
2019-03-31T09:29:03.735Z,692.00
2019-03-31T09:30:03.742Z,688.00
2019-03-31T09:31:03.755Z,680.00
2019-03-31T09:32:03.761Z,700.00
2019-03-31T09:33:03.769Z,720.00
2019-03-31T09:34:03.788Z,724.00
2019-03-31T09:35:03.799Z,700.00
2019-03-31T09:36:15.326Z,768.00
2019-03-31T09:37:03.814Z,776.00
2019-03-31T09:38:03.829Z,788.00
2019-03-31T09:39:03.837Z,796.00
2019-03-31T09:40:03.846Z,808.00
2019-03-31T09:41:03.859Z,820.00
2019-03-31T09:42:03.874Z,828.00
2019-03-31T09:43:03.892Z,840.00
2019-03-31T09:44:03.899Z,852.00
2019-03-31T09:45:03.906Z,864.00
2019-03-31T09:46:03.915Z,876.00
2019-03-31T09:47:03.932Z,884.00
2019-03-31T09:48:03.940Z,900.00
2019-03-31T09:49:03.953Z,908.00
2019-03-31T09:50:03.966Z,920.00
2019-03-31T09:51:03.976Z,932.00
2019-03-31T09:52:03.985Z,948.00
2019-03-31T09:53:03.998Z,956.00
2019-03-31T09:54:04.014Z,964.00
2019-03-31T09:55:04.021Z,976.00
2019-03-31T09:56:04.029Z,992.00
2019-03-31T09:57:04.044Z,1004.00
2019-03-31T09:58:04.055Z,1012.00
2019-03-31T09:59:04.063Z,1024.00
2019-03-31T10:00:04.076Z,1032.00
2019-03-31T10:01:04.089Z,1048.00
2019-03-31T10:02:04.098Z,1060.00
2019-03-31T10:03:04.115Z,1068.00
2019-03-31T10:04:04.120Z,1080.00
2019-03-31T10:05:04.135Z,1088.00
2019-03-31T10:06:10.427Z,1100.00
2019-03-31T10:07:04.155Z,1112.00
2019-03-31T10:08:04.174Z,1124.00
2019-03-31T10:09:04.178Z,1128.00
2019-03-31T10:10:04.197Z,1140.00
2019-03-31T10:11:04.202Z,1148.00
2019-03-31T10:12:04.221Z,1160.00
2019-03-31T10:13:04.226Z,1168.00
2019-03-31T10:14:04.237Z,1172.00
2019-03-31T10:15:04.253Z,1184.00
2019-03-31T10:16:04.264Z,1188.00
2019-03-31T10:17:04.281Z,1184.00
2019-03-31T10:18:04.286Z,1204.00
2019-03-31T10:19:04.297Z,1204.00
2019-03-31T10:20:04.317Z,1224.00
2019-03-31T10:21:04.325Z,1236.00
2019-03-31T10:22:04.337Z,1244.00
2019-03-31T10:23:04.353Z,1256.00
2019-03-31T10:24:04.365Z,1268.00
2019-03-31T10:25:04.374Z,1272.00
2019-03-31T10:26:04.388Z,1280.00
2019-03-31T10:27:04.401Z,1288.00
2019-03-31T10:28:04.414Z,1296.00
2019-03-31T10:29:04.423Z,1304.00
2019-03-31T10:30:04.437Z,1312.00
2019-03-31T10:31:04.450Z,1320.00
2019-03-31T10:32:04.466Z,1324.00
2019-03-31T10:33:04.484Z,1332.00
2019-03-31T10:34:04.484Z,1340.00
2019-03-31T10:35:04.498Z,1348.00
2019-03-31T10:36:04.511Z,1356.00
2019-03-31T10:37:04.526Z,1360.00
2019-03-31T10:38:04.537Z,1368.00
2019-03-31T10:39:04.550Z,1376.00
2019-03-31T10:40:04.571Z,1380.00
2019-03-31T10:41:04.575Z,1388.00
2019-03-31T10:42:04.587Z,1396.00
2019-03-31T10:43:04.604Z,1400.00
2019-03-31T10:44:04.619Z,1408.00
2019-03-31T10:45:04.630Z,1412.00
2019-03-31T10:46:04.645Z,1420.00
2019-03-31T10:47:04.654Z,1412.00
2019-03-31T10:48:19.210Z,1404.00
2019-03-31T10:49:04.681Z,1432.00
2019-03-31T10:50:04.700Z,1436.00
2019-03-31T10:51:04.711Z,1436.00
2019-03-31T10:52:04.730Z,1448.00
2019-03-31T10:53:04.747Z,1452.00
2019-03-31T10:54:04.860Z,1460.00
2019-03-31T10:55:04.767Z,1468.00
2019-03-31T10:56:04.782Z,1468.00
2019-03-31T10:57:04.793Z,1476.00
2019-03-31T10:58:04.809Z,1484.00
2019-03-31T10:59:04.819Z,1488.00
2019-03-31T11:00:04.837Z,1492.00
2019-03-31T11:01:04.847Z,1496.00
2019-03-31T11:02:04.866Z,1500.00
2019-03-31T11:03:04.884Z,1508.00
2019-03-31T11:04:04.891Z,1512.00
2019-03-31T11:05:04.905Z,1520.00
2019-03-31T11:06:04.925Z,1528.00
2019-03-31T11:07:04.935Z,1528.00
2019-03-31T11:08:04.946Z,1532.00
2019-03-31T11:09:04.961Z,1540.00
2019-03-31T11:10:04.977Z,1540.00
2019-03-31T11:11:04.991Z,1548.00
2019-03-31T11:12:05.004Z,1552.00
2019-03-31T11:13:05.021Z,1560.00
2019-03-31T11:14:05.033Z,1560.00
2019-03-31T11:15:05.051Z,1564.00
2019-03-31T11:16:05.062Z,1572.00
2019-03-31T11:17:05.078Z,1572.00
2019-03-31T11:18:05.095Z,1580.00
2019-03-31T11:19:05.105Z,1588.00
2019-03-31T11:20:05.118Z,1592.00
2019-03-31T11:21:05.135Z,1592.00
2019-03-31T11:22:05.151Z,1596.00
2019-03-31T11:23:05.168Z,1604.00
2019-03-31T11:24:05.180Z,1604.00
2019-03-31T11:25:05.190Z,1608.00
2019-03-31T11:26:05.213Z,1616.00
2019-03-31T11:27:05.224Z,1616.00
2019-03-31T11:28:05.236Z,1616.00
2019-03-31T11:29:05.250Z,1624.00
2019-03-31T11:30:05.266Z,1628.00
2019-03-31T11:31:05.279Z,1628.00
2019-03-31T11:32:05.290Z,1632.00
2019-03-31T11:33:07.439Z,1636.00
2019-03-31T11:34:05.325Z,1640.00
2019-03-31T11:35:05.340Z,1640.00
2019-03-31T11:36:05.353Z,1644.00
2019-03-31T11:37:13.324Z,1644.00
2019-03-31T11:38:05.375Z,1644.00
2019-03-31T11:39:05.395Z,1652.00
2019-03-31T11:40:05.403Z,1652.00
2019-03-31T11:41:05.421Z,1660.00
2019-03-31T11:42:05.437Z,1656.00
2019-03-31T11:43:05.448Z,1660.00
2019-03-31T11:44:05.467Z,1664.00
2019-03-31T11:45:05.477Z,1668.00
2019-03-31T11:46:05.492Z,1672.00
2019-03-31T11:47:05.506Z,1676.00
2019-03-31T11:48:05.521Z,1672.00
2019-03-31T11:49:05.534Z,1680.00
2019-03-31T11:50:05.549Z,1680.00
2019-03-31T11:51:05.564Z,1684.00
2019-03-31T11:52:05.580Z,1688.00
2019-03-31T11:53:05.590Z,1692.00
2019-03-31T11:54:05.607Z,1692.00
2019-03-31T11:55:05.624Z,1696.00
2019-03-31T11:56:05.636Z,1700.00
2019-03-31T11:57:05.648Z,1700.00
2019-03-31T11:58:05.663Z,1708.00
2019-03-31T11:59:05.676Z,1704.00
2019-03-31T12:00:05.690Z,1708.00
2019-03-31T12:01:05.710Z,1708.00
2019-03-31T12:02:05.722Z,1712.00
2019-03-31T12:03:05.733Z,1712.00
2019-03-31T12:04:05.747Z,1716.00
2019-03-31T12:05:06.341Z,1720.00
2019-03-31T12:06:05.781Z,1720.00
2019-03-31T12:07:05.797Z,1720.00
2019-03-31T12:08:05.809Z,1720.00
2019-03-31T12:09:05.823Z,1720.00
2019-03-31T12:10:05.839Z,1720.00
2019-03-31T12:11:05.850Z,1724.00
2019-03-31T12:12:05.864Z,1720.00
2019-03-31T12:13:05.883Z,1724.00
2019-03-31T12:14:05.902Z,1732.00
2019-03-31T12:15:05.911Z,1728.00
2019-03-31T12:16:06.000Z,1732.00
2019-03-31T12:17:05.942Z,1732.00
2019-03-31T12:18:05.954Z,1732.00
2019-03-31T12:19:05.973Z,1736.00
2019-03-31T12:20:05.985Z,1732.00
2019-03-31T12:21:05.997Z,1732.00
2019-03-31T12:22:06.014Z,1736.00
2019-03-31T12:23:06.028Z,1740.00
2019-03-31T12:24:06.040Z,1736.00
2019-03-31T12:25:06.054Z,1736.00
2019-03-31T12:26:06.068Z,1740.00
2019-03-31T12:27:06.094Z,1744.00
2019-03-31T12:28:06.102Z,1744.00
2019-03-31T12:29:06.113Z,1744.00
2019-03-31T12:30:06.130Z,1744.00
2019-03-31T12:31:06.146Z,1748.00
2019-03-31T12:32:06.159Z,1748.00
2019-03-31T12:33:06.174Z,1752.00
2019-03-31T12:34:06.191Z,1752.00
2019-03-31T12:35:06.204Z,1748.00
2019-03-31T12:36:06.219Z,1756.00
2019-03-31T12:37:06.237Z,1752.00
2019-03-31T12:38:06.249Z,1756.00
2019-03-31T12:39:06.265Z,1756.00
2019-03-31T12:40:06.291Z,1756.00
2019-03-31T12:41:06.366Z,1760.00
2019-03-31T12:42:06.311Z,1760.00
2019-03-31T12:43:06.323Z,1764.00
2019-03-31T12:44:06.341Z,1772.00
2019-03-31T12:45:06.359Z,1768.00
2019-03-31T12:46:06.386Z,1772.00